DeKalb Peachtree Airport
KPDK : rendu visible

Aérodrome :











RETROUVEZ-NOUS SUR...

 
LOGIN :

S'inscrire | Disclaimer

   EN    FR    IT 

 









Légende :    VFR   VFR Marginal   IFR   IFR Intensif   IFR Très Intensif
Visi : 
Plafond : 
>= 8 km
>= 3000ft
5 à 8 km
1000 à 3000 ft
1500m à 5 km
500 à 1000 ft
800 à 1500m
200 à 500 ft
< 800m
< 200 ft
Symboles :   Orages  Brouillard  Fortes neiges  Fortes précipitations  Vent > 20 kt







- Altitude de l'aérodrome : 1003 ft


KPDK - DeKalb Peachtree

DERNIER METAR :
  • 190253Z VRB03KT 10SM CLR 21/15 A3014 RMK AO2 SLP191 T02110150 51022

METARs EXPIRÉS :
  • 190153Z VRB05KT 10SM CLR 22/16 A3012 RMK AO2 SLP186 T02170156
  • 190053Z VRB05KT 10SM CLR 23/17 A3010 RMK AO2 SLP178 T02280172

TAF KPDK
Valide du 19 à 00h jusqu'au 20 à 00h UTC


182326Z 1900/1924 09010KT P6SM FEW250
FM190700 10007KT P6SM BKN050
FM191400 10010G15KT P6SM SCT050
FM192100 08008KT P6SM FEW250
Pas de NOTAMs connus pour ce terrain.



MET'MAP, la Météo Aéronautique d'un coup d'oeil ! - Copyright ORBIFLY Décembre 2007 - Disclaimer

ORBIFLY MET'MAP TEAM :

Programmation & Développement : Alexandra Zaïnal
Conception & Développement : Baudouin d'Aumeries
Co-Programmation & Développement : Marc-Olivier Méhu
Soutien technique & logistique : Manuel Goepfert

Contact : metmap@orbifly.com




SOURCES & CREDITS :

   NOAA       Earth
Advisory